Sign-in with your pilot id or email, or register

ICAO: WIII Name / Country: Jakarta / Soekarno-Hatta / Indonesia
Latitude: -6.12557 Longitude: 106.656
Total Arrivals:
Strict Standards: Non-static method AirportData::getarrflights() should not be called statically, assuming $this from incompatible context in /var/www/customers/vh-7192/web/home/phpvms/core/templates/airport_info.tpl on line 18
1
Total Departures:
Strict Standards: Non-static method AirportData::getdeptflights() should not be called statically, assuming $this from incompatible context in /var/www/customers/vh-7192/web/home/phpvms/core/templates/airport_info.tpl on line 21
1
Latest Arrival: MTA5PM (WSSS-WIII) Tibor Berces Latest Departure: MTA5PM (WIII-YPDN) Tibor Berces
Metar: WIII 221500Z 26010KT 8000 FEW020 27/21 Q1010 NOSIG
More info

Charts for WIII


NOTAM


Warning: file_get_contents(http://api.vateud.net/notams/WIII.json): failed to open stream: Redirection limit reached, aborting in /var/www/customers/vh-7192/web/home/phpvms/core/common/NOTAMSData.class.php on line 18

Warning: Invalid argument supplied for foreach() in /var/www/customers/vh-7192/web/home/phpvms/core/common/NOTAMSData.class.php on line 22

Jakarta / Soekarno-Hatta